map of SLM home
SLM - Airport
Location
City:  Salamanca, Castille and León, Spain
Name:Matacán
ICAO:LESA
IATA:SLM

Details
Type:Airport (Aerodrome, Airfield)
Use:Military
Latitude:40°57'08"N (40.952117)
Longitude:5°30'07"W (-5.501985)
Datum:WGS 1984
Elevation:2595 ft (791 m)
Variation:1.03°W (WMM2015v2 magnetic declination)
0.16° annual change
Runways:2
Longest:8202 × 197 ft (2500 × 60 m), paved

Time
Time Zone:UTC+1 (DST+2)
Local Time:

Weather
METAR:LESA 041400Z VRB02KT CAVOK 11/M06 Q1028
TAF:LESA 041100Z 0412/0512 VRB04KT CAVOK TX11/0415Z TNM04/0507Z PROB30
TEMPO 0503/0508 4000 BR NSC

Related Locations
Nearby:
Farthest:PPQ: 12419 mi / 19986 km
Paraparaumu, WGN, NZ

Find:

   beyond  
but within

Other Information
Maps:
NOTAMs:
Links:
Sources:

  
  • flag of Spain
  • flag of Castille and León
  

Sectional Chart

Flight Planning
at skyvector.com

Satellite Image

Google Maps Satellite view

 

Copyright © 2004-2019 Karl L. Swartz. All rights reserved.
The Great Circle Mapper name and logo are trademarks of the Great Circle Mapper.
All other trademarks mentioned herein belong to their respective owners.
Please see credits for attibutions and further copyright information.

  Follow gcmap on Facebook Follow gcmap on Twitter GCmap on LinkedIn

hCard Microformat

Geo Microformat